sensor_id;sensor_type;location;lat;lon;timestamp;temperature;humidity
81630;DHT22;71039;49.500;10.418;2024-02-23T00:02:19;11.50;60.00
81630;DHT22;71039;49.500;10.418;2024-02-23T00:04:45;11.40;60.00
81630;DHT22;71039;49.500;10.418;2024-02-23T00:07:11;11.40;60.00
81630;DHT22;71039;49.500;10.418;2024-02-23T00:09:37;11.40;60.00
81630;DHT22;71039;49.500;10.418;2024-02-23T00:12:03;11.30;59.90
81630;DHT22;71039;49.500;10.418;2024-02-23T00:14:30;11.30;59.90
81630;DHT22;71039;49.500;10.418;2024-02-23T00:16:55;11.20;59.80
81630;DHT22;71039;49.500;10.418;2024-02-23T00:19:21;11.10;59.80
81630;DHT22;71039;49.500;10.418;2024-02-23T00:21:46;11.10;59.70
81630;DHT22;71039;49.500;10.418;2024-02-23T00:24:12;11.10;59.60
81630;DHT22;71039;49.500;10.418;2024-02-23T00:26:37;11.10;59.60
81630;DHT22;71039;49.500;10.418;2024-02-23T00:29:03;11.00;59.60
81630;DHT22;71039;49.500;10.418;2024-02-23T00:31:28;11.00;59.70
81630;DHT22;71039;49.500;10.418;2024-02-23T00:33:54;10.90;59.60
81630;DHT22;71039;49.500;10.418;2024-02-23T00:36:19;10.90;59.60
81630;DHT22;71039;49.500;10.418;2024-02-23T00:38:45;10.80;59.70
81630;DHT22;71039;49.500;10.418;2024-02-23T00:41:10;10.80;59.70
81630;DHT22;71039;49.500;10.418;2024-02-23T00:43:42;10.70;59.70
81630;DHT22;71039;49.500;10.418;2024-02-23T00:46:08;10.70;59.60
81630;DHT22;71039;49.500;10.418;2024-02-23T00:48:34;10.60;59.60
81630;DHT22;71039;49.500;10.418;2024-02-23T00:51:01;10.60;59.60
81630;DHT22;71039;49.500;10.418;2024-02-23T00:53:27;10.60;59.60
81630;DHT22;71039;49.500;10.418;2024-02-23T00:55:52;10.50;59.60
81630;DHT22;71039;49.500;10.418;2024-02-23T00:58:18;10.50;59.60
81630;DHT22;71039;49.500;10.418;2024-02-23T01:00:44;10.50;59.60
81630;DHT22;71039;49.500;10.418;2024-02-23T01:03:09;10.40;59.50
81630;DHT22;71039;49.500;10.418;2024-02-23T01:05:35;10.40;59.60
81630;DHT22;71039;49.500;10.418;2024-02-23T01:08:00;10.30;59.60
81630;DHT22;71039;49.500;10.418;2024-02-23T01:10:26;10.30;59.60
81630;DHT22;71039;49.500;10.418;2024-02-23T01:12:51;10.20;59.60
81630;DHT22;71039;49.500;10.418;2024-02-23T01:15:17;10.20;59.70
81630;DHT22;71039;49.500;10.418;2024-02-23T01:17:42;10.10;59.70
81630;DHT22;71039;49.500;10.418;2024-02-23T01:20:08;10.10;59.70
81630;DHT22;71039;49.500;10.418;2024-02-23T01:22:34;10.10;59.70
81630;DHT22;71039;49.500;10.418;2024-02-23T01:24:59;10.10;59.60
81630;DHT22;71039;49.500;10.418;2024-02-23T01:27:25;10.00;59.70
81630;DHT22;71039;49.500;10.418;2024-02-23T01:29:50;10.00;59.70
81630;DHT22;71039;49.500;10.418;2024-02-23T01:32:16;10.00;59.70
81630;DHT22;71039;49.500;10.418;2024-02-23T01:34:41;10.00;59.70
81630;DHT22;71039;49.500;10.418;2024-02-23T01:37:07;10.00;59.70
81630;DHT22;71039;49.500;10.418;2024-02-23T01:39:32;9.90;59.80
81630;DHT22;71039;49.500;10.418;2024-02-23T01:41:58;9.90;59.80
81630;DHT22;71039;49.500;10.418;2024-02-23T01:44:23;9.80;59.80
81630;DHT22;71039;49.500;10.418;2024-02-23T01:46:50;9.80;59.90
81630;DHT22;71039;49.500;10.418;2024-02-23T01:49:15;9.80;59.90
81630;DHT22;71039;49.500;10.418;2024-02-23T01:51:41;9.70;60.00
81630;DHT22;71039;49.500;10.418;2024-02-23T01:54:08;9.70;60.10
81630;DHT22;71039;49.500;10.418;2024-02-23T01:56:35;9.70;60.00
81630;DHT22;71039;49.500;10.418;2024-02-23T01:59:02;9.60;60.10
81630;DHT22;71039;49.500;10.418;2024-02-23T02:01:30;9.60;60.10
81630;DHT22;71039;49.500;10.418;2024-02-23T02:03:56;9.60;60.10
81630;DHT22;71039;49.500;10.418;2024-02-23T02:06:22;9.60;60.00
81630;DHT22;71039;49.500;10.418;2024-02-23T02:08:48;9.60;60.00
81630;DHT22;71039;49.500;10.418;2024-02-23T02:11:14;9.50;60.00
81630;DHT22;71039;49.500;10.418;2024-02-23T02:13:39;9.50;59.90
81630;DHT22;71039;49.500;10.418;2024-02-23T02:16:05;9.50;59.90
81630;DHT22;71039;49.500;10.418;2024-02-23T02:18:30;9.50;59.80
81630;DHT22;71039;49.500;10.418;2024-02-23T02:20:57;9.40;59.90
81630;DHT22;71039;49.500;10.418;2024-02-23T02:23:24;9.40;59.90
81630;DHT22;71039;49.500;10.418;2024-02-23T02:25:56;9.40;59.90
81630;DHT22;71039;49.500;10.418;2024-02-23T02:28:23;9.30;59.90
81630;DHT22;71039;49.500;10.418;2024-02-23T02:30:50;9.30;59.80
81630;DHT22;71039;49.500;10.418;2024-02-23T02:33:16;9.20;59.90
81630;DHT22;71039;49.500;10.418;2024-02-23T02:35:41;9.20;59.80
81630;DHT22;71039;49.500;10.418;2024-02-23T02:38:07;9.20;59.80
81630;DHT22;71039;49.500;10.418;2024-02-23T02:40:32;9.20;59.80
81630;DHT22;71039;49.500;10.418;2024-02-23T02:42:58;9.20;59.90
81630;DHT22;71039;49.500;10.418;2024-02-23T02:45:23;9.10;59.90
81630;DHT22;71039;49.500;10.418;2024-02-23T02:47:49;9.00;59.90
81630;DHT22;71039;49.500;10.418;2024-02-23T02:50:15;9.00;59.90
81630;DHT22;71039;49.500;10.418;2024-02-23T02:52:41;9.00;59.90
81630;DHT22;71039;49.500;10.418;2024-02-23T02:55:07;9.00;60.00
81630;DHT22;71039;49.500;10.418;2024-02-23T02:57:33;9.00;59.90
81630;DHT22;71039;49.500;10.418;2024-02-23T02:59:59;8.90;60.00
81630;DHT22;71039;49.500;10.418;2024-02-23T03:02:24;8.90;60.00
81630;DHT22;71039;49.500;10.418;2024-02-23T03:04:50;8.90;59.90
81630;DHT22;71039;49.500;10.418;2024-02-23T03:07:16;8.90;59.90
81630;DHT22;71039;49.500;10.418;2024-02-23T03:09:42;8.90;59.90
81630;DHT22;71039;49.500;10.418;2024-02-23T03:12:08;8.90;59.80
81630;DHT22;71039;49.500;10.418;2024-02-23T03:14:33;8.80;59.80
81630;DHT22;71039;49.500;10.418;2024-02-23T03:16:59;8.80;59.80
81630;DHT22;71039;49.500;10.418;2024-02-23T03:19:25;8.80;59.80
81630;DHT22;71039;49.500;10.418;2024-02-23T03:21:51;8.70;59.80
81630;DHT22;71039;49.500;10.418;2024-02-23T03:24:17;8.70;59.80
81630;DHT22;71039;49.500;10.418;2024-02-23T03:26:42;8.60;59.90
81630;DHT22;71039;49.500;10.418;2024-02-23T03:29:09;8.60;59.90
81630;DHT22;71039;49.500;10.418;2024-02-23T03:31:35;8.60;59.90
81630;DHT22;71039;49.500;10.418;2024-02-23T03:34:00;8.60;59.90
81630;DHT22;71039;49.500;10.418;2024-02-23T03:36:26;8.60;59.90
81630;DHT22;71039;49.500;10.418;2024-02-23T03:38:51;8.60;60.00
81630;DHT22;71039;49.500;10.418;2024-02-23T03:41:17;8.50;59.90
81630;DHT22;71039;49.500;10.418;2024-02-23T03:43:42;8.50;59.90
81630;DHT22;71039;49.500;10.418;2024-02-23T03:46:08;8.50;59.90
81630;DHT22;71039;49.500;10.418;2024-02-23T03:48:33;8.50;59.90
81630;DHT22;71039;49.500;10.418;2024-02-23T03:50:59;8.50;59.90
81630;DHT22;71039;49.500;10.418;2024-02-23T03:53:24;8.50;59.90
81630;DHT22;71039;49.500;10.418;2024-02-23T03:55:50;8.40;59.90
81630;DHT22;71039;49.500;10.418;2024-02-23T03:58:15;8.40;59.90
81630;DHT22;71039;49.500;10.418;2024-02-23T04:00:41;8.40;59.90
81630;DHT22;71039;49.500;10.418;2024-02-23T04:03:07;8.40;59.90
81630;DHT22;71039;49.500;10.418;2024-02-23T04:05:32;8.40;59.90
81630;DHT22;71039;49.500;10.418;2024-02-23T04:07:58;8.40;59.90
81630;DHT22;71039;49.500;10.418;2024-02-23T04:10:23;8.30;59.90
81630;DHT22;71039;49.500;10.418;2024-02-23T04:12:49;8.30;59.90
81630;DHT22;71039;49.500;10.418;2024-02-23T04:15:14;8.30;59.90
81630;DHT22;71039;49.500;10.418;2024-02-23T04:17:40;8.30;60.00
81630;DHT22;71039;49.500;10.418;2024-02-23T04:20:07;8.20;60.00
81630;DHT22;71039;49.500;10.418;2024-02-23T04:22:33;8.30;60.00
81630;DHT22;71039;49.500;10.418;2024-02-23T04:24:58;8.20;60.00
81630;DHT22;71039;49.500;10.418;2024-02-23T04:27:24;8.20;60.00
81630;DHT22;71039;49.500;10.418;2024-02-23T04:29:49;8.20;60.00
81630;DHT22;71039;49.500;10.418;2024-02-23T04:32:15;8.20;60.00
81630;DHT22;71039;49.500;10.418;2024-02-23T04:34:40;8.20;60.00
81630;DHT22;71039;49.500;10.418;2024-02-23T04:37:06;8.20;60.00
81630;DHT22;71039;49.500;10.418;2024-02-23T04:39:31;8.20;60.00
81630;DHT22;71039;49.500;10.418;2024-02-23T04:41:57;8.20;60.00
81630;DHT22;71039;49.500;10.418;2024-02-23T04:44:22;8.20;60.00
81630;DHT22;71039;49.500;10.418;2024-02-23T04:46:48;8.20;60.00
81630;DHT22;71039;49.500;10.418;2024-02-23T04:49:13;8.20;60.00
81630;DHT22;71039;49.500;10.418;2024-02-23T04:51:39;8.20;59.90
81630;DHT22;71039;49.500;10.418;2024-02-23T04:54:05;8.10;60.00
81630;DHT22;71039;49.500;10.418;2024-02-23T04:56:30;8.10;59.90
81630;DHT22;71039;49.500;10.418;2024-02-23T04:58:56;8.10;59.90
81630;DHT22;71039;49.500;10.418;2024-02-23T05:01:21;8.10;59.90
81630;DHT22;71039;49.500;10.418;2024-02-23T05:07:15;8.10;59.80
81630;DHT22;71039;49.500;10.418;2024-02-23T05:12:25;8.10;59.90
81630;DHT22;71039;49.500;10.418;2024-02-23T05:14:50;8.10;60.00
81630;DHT22;71039;49.500;10.418;2024-02-23T05:17:16;8.00;60.00
81630;DHT22;71039;49.500;10.418;2024-02-23T05:19:41;8.10;59.90
81630;DHT22;71039;49.500;10.418;2024-02-23T05:25:36;8.00;59.80
81630;DHT22;71039;49.500;10.418;2024-02-23T05:28:01;8.00;59.80
81630;DHT22;71039;49.500;10.418;2024-02-23T05:30:27;8.00;59.80
81630;DHT22;71039;49.500;10.418;2024-02-23T05:32:53;8.00;59.80
81630;DHT22;71039;49.500;10.418;2024-02-23T05:35:18;8.00;59.80
81630;DHT22;71039;49.500;10.418;2024-02-23T05:37:44;8.00;59.80
81630;DHT22;71039;49.500;10.418;2024-02-23T05:40:10;8.00;59.80
81630;DHT22;71039;49.500;10.418;2024-02-23T05:42:36;8.00;59.80
81630;DHT22;71039;49.500;10.418;2024-02-23T05:45:02;8.00;59.80
81630;DHT22;71039;49.500;10.418;2024-02-23T05:47:27;8.00;59.80
81630;DHT22;71039;49.500;10.418;2024-02-23T05:49:53;8.00;59.80
81630;DHT22;71039;49.500;10.418;2024-02-23T05:52:18;8.00;59.70
81630;DHT22;71039;49.500;10.418;2024-02-23T05:54:44;8.00;59.70
81630;DHT22;71039;49.500;10.418;2024-02-23T05:57:09;8.00;59.70
81630;DHT22;71039;49.500;10.418;2024-02-23T05:59:35;8.00;59.70
81630;DHT22;71039;49.500;10.418;2024-02-23T06:02:00;7.90;59.70
81630;DHT22;71039;49.500;10.418;2024-02-23T06:04:26;7.90;59.70
81630;DHT22;71039;49.500;10.418;2024-02-23T06:06:51;7.90;59.60
81630;DHT22;71039;49.500;10.418;2024-02-23T06:09:17;7.90;59.60
81630;DHT22;71039;49.500;10.418;2024-02-23T06:11:42;7.80;59.60
81630;DHT22;71039;49.500;10.418;2024-02-23T06:14:08;7.80;59.60
81630;DHT22;71039;49.500;10.418;2024-02-23T06:16:34;7.80;59.60
81630;DHT22;71039;49.500;10.418;2024-02-23T06:18:59;7.80;59.70
81630;DHT22;71039;49.500;10.418;2024-02-23T06:21:25;7.80;59.60
81630;DHT22;71039;49.500;10.418;2024-02-23T06:23:50;7.80;59.60
81630;DHT22;71039;49.500;10.418;2024-02-23T06:26:16;7.80;59.70
81630;DHT22;71039;49.500;10.418;2024-02-23T06:28:42;7.80;59.60
81630;DHT22;71039;49.500;10.418;2024-02-23T06:31:08;7.80;59.60
81630;DHT22;71039;49.500;10.418;2024-02-23T06:33:33;7.80;59.60
81630;DHT22;71039;49.500;10.418;2024-02-23T06:35:59;7.80;59.60
81630;DHT22;71039;49.500;10.418;2024-02-23T06:38:25;7.70;59.60
81630;DHT22;71039;49.500;10.418;2024-02-23T06:40:51;7.70;59.60
81630;DHT22;71039;49.500;10.418;2024-02-23T06:43:17;7.70;59.60
81630;DHT22;71039;49.500;10.418;2024-02-23T06:45:42;7.60;59.60
81630;DHT22;71039;49.500;10.418;2024-02-23T06:48:08;7.60;59.60
81630;DHT22;71039;49.500;10.418;2024-02-23T06:50:34;7.70;59.60
81630;DHT22;71039;49.500;10.418;2024-02-23T06:53:00;7.60;59.60
81630;DHT22;71039;49.500;10.418;2024-02-23T06:55:25;7.60;59.70
81630;DHT22;71039;49.500;10.418;2024-02-23T06:57:51;7.60;59.70
81630;DHT22;71039;49.500;10.418;2024-02-23T07:00:16;7.60;59.60
81630;DHT22;71039;49.500;10.418;2024-02-23T07:02:42;7.60;59.60
81630;DHT22;71039;49.500;10.418;2024-02-23T07:05:08;7.60;59.60
81630;DHT22;71039;49.500;10.418;2024-02-23T07:07:35;7.60;59.60
81630;DHT22;71039;49.500;10.418;2024-02-23T07:10:00;7.60;59.60
81630;DHT22;71039;49.500;10.418;2024-02-23T07:12:26;7.60;59.60
81630;DHT22;71039;49.500;10.418;2024-02-23T07:14:51;7.60;59.60
81630;DHT22;71039;49.500;10.418;2024-02-23T07:17:17;7.60;59.60
81630;DHT22;71039;49.500;10.418;2024-02-23T07:19:43;7.60;59.70
81630;DHT22;71039;49.500;10.418;2024-02-23T07:22:08;7.60;59.70
81630;DHT22;71039;49.500;10.418;2024-02-23T07:24:34;7.60;59.70
81630;DHT22;71039;49.500;10.418;2024-02-23T07:26:59;7.60;59.70
81630;DHT22;71039;49.500;10.418;2024-02-23T07:29:25;7.60;59.70
81630;DHT22;71039;49.500;10.418;2024-02-23T07:31:50;7.60;59.70
81630;DHT22;71039;49.500;10.418;2024-02-23T07:34:16;7.60;59.70
81630;DHT22;71039;49.500;10.418;2024-02-23T07:36:41;7.60;59.70
81630;DHT22;71039;49.500;10.418;2024-02-23T07:39:07;7.70;59.70
81630;DHT22;71039;49.500;10.418;2024-02-23T07:41:32;7.70;59.70
81630;DHT22;71039;49.500;10.418;2024-02-23T07:43:58;7.80;59.70
81630;DHT22;71039;49.500;10.418;2024-02-23T07:46:23;7.80;59.80
81630;DHT22;71039;49.500;10.418;2024-02-23T07:48:49;7.80;59.80
81630;DHT22;71039;49.500;10.418;2024-02-23T07:51:14;7.80;59.90
81630;DHT22;71039;49.500;10.418;2024-02-23T07:53:40;7.80;59.90
81630;DHT22;71039;49.500;10.418;2024-02-23T07:56:07;7.90;59.90
81630;DHT22;71039;49.500;10.418;2024-02-23T07:58:33;8.00;59.90
81630;DHT22;71039;49.500;10.418;2024-02-23T08:00:58;8.00;59.90
81630;DHT22;71039;49.500;10.418;2024-02-23T08:03:24;8.00;59.90
81630;DHT22;71039;49.500;10.418;2024-02-23T08:05:49;8.00;59.80
81630;DHT22;71039;49.500;10.418;2024-02-23T08:08:15;8.00;59.80
81630;DHT22;71039;49.500;10.418;2024-02-23T08:10:40;8.10;59.80
81630;DHT22;71039;49.500;10.418;2024-02-23T08:13:06;8.20;59.80
81630;DHT22;71039;49.500;10.418;2024-02-23T08:15:31;8.20;59.80
81630;DHT22;71039;49.500;10.418;2024-02-23T08:17:57;8.30;59.80
81630;DHT22;71039;49.500;10.418;2024-02-23T08:20:22;8.30;59.70
81630;DHT22;71039;49.500;10.418;2024-02-23T08:22:48;8.30;59.70
81630;DHT22;71039;49.500;10.418;2024-02-23T08:25:14;8.40;59.60
81630;DHT22;71039;49.500;10.418;2024-02-23T08:27:41;8.40;59.60
81630;DHT22;71039;49.500;10.418;2024-02-23T08:30:07;8.50;59.50
81630;DHT22;71039;49.500;10.418;2024-02-23T08:32:32;8.50;59.40
81630;DHT22;71039;49.500;10.418;2024-02-23T08:34:58;8.60;59.30
81630;DHT22;71039;49.500;10.418;2024-02-23T08:37:23;8.60;59.20
81630;DHT22;71039;49.500;10.418;2024-02-23T08:39:49;8.60;59.20
81630;DHT22;71039;49.500;10.418;2024-02-23T08:42:14;8.60;59.20
81630;DHT22;71039;49.500;10.418;2024-02-23T08:44:40;8.70;59.10
81630;DHT22;71039;49.500;10.418;2024-02-23T08:47:05;8.80;59.10
81630;DHT22;71039;49.500;10.418;2024-02-23T08:49:31;8.80;59.00
81630;DHT22;71039;49.500;10.418;2024-02-23T08:51:56;8.80;59.00
81630;DHT22;71039;49.500;10.418;2024-02-23T08:54:22;8.90;58.90
81630;DHT22;71039;49.500;10.418;2024-02-23T08:56:47;8.90;58.70
81630;DHT22;71039;49.500;10.418;2024-02-23T08:59:13;8.90;58.80
81630;DHT22;71039;49.500;10.418;2024-02-23T09:01:38;9.00;58.70
81630;DHT22;71039;49.500;10.418;2024-02-23T09:04:04;9.00;58.70
81630;DHT22;71039;49.500;10.418;2024-02-23T09:06:29;9.00;58.60
81630;DHT22;71039;49.500;10.418;2024-02-23T09:08:55;9.00;58.60
81630;DHT22;71039;49.500;10.418;2024-02-23T09:11:20;9.10;58.50
81630;DHT22;71039;49.500;10.418;2024-02-23T09:13:46;9.20;58.50
81630;DHT22;71039;49.500;10.418;2024-02-23T09:16:11;9.20;58.40
81630;DHT22;71039;49.500;10.418;2024-02-23T09:18:37;9.20;58.40
81630;DHT22;71039;49.500;10.418;2024-02-23T09:21:03;9.20;58.20
81630;DHT22;71039;49.500;10.418;2024-02-23T09:23:28;9.20;58.10
81630;DHT22;71039;49.500;10.418;2024-02-23T09:25:54;9.20;58.10
81630;DHT22;71039;49.500;10.418;2024-02-23T09:28:19;9.30;58.00
81630;DHT22;71039;49.500;10.418;2024-02-23T09:30:45;9.30;57.90
81630;DHT22;71039;49.500;10.418;2024-02-23T09:33:10;9.30;57.90
81630;DHT22;71039;49.500;10.418;2024-02-23T09:35:36;9.40;57.80
81630;DHT22;71039;49.500;10.418;2024-02-23T09:38:01;9.40;57.70
81630;DHT22;71039;49.500;10.418;2024-02-23T09:40:27;9.40;57.80
81630;DHT22;71039;49.500;10.418;2024-02-23T09:42:56;9.40;57.70
81630;DHT22;71039;49.500;10.418;2024-02-23T09:45:22;9.40;57.70
81630;DHT22;71039;49.500;10.418;2024-02-23T09:47:48;9.40;57.80
81630;DHT22;71039;49.500;10.418;2024-02-23T09:50:15;9.40;57.70
81630;DHT22;71039;49.500;10.418;2024-02-23T09:52:42;9.40;57.60
81630;DHT22;71039;49.500;10.418;2024-02-23T09:55:08;9.50;57.50
81630;DHT22;71039;49.500;10.418;2024-02-23T09:57:34;9.50;57.50
81630;DHT22;71039;49.500;10.418;2024-02-23T09:59:59;9.50;57.60
81630;DHT22;71039;49.500;10.418;2024-02-23T10:02:26;9.50;57.40
81630;DHT22;71039;49.500;10.418;2024-02-23T10:04:53;9.50;57.30
81630;DHT22;71039;49.500;10.418;2024-02-23T10:07:19;9.60;57.20
81630;DHT22;71039;49.500;10.418;2024-02-23T10:09:45;9.60;57.20
81630;DHT22;71039;49.500;10.418;2024-02-23T10:12:10;9.60;57.20
81630;DHT22;71039;49.500;10.418;2024-02-23T10:14:36;9.60;57.30
81630;DHT22;71039;49.500;10.418;2024-02-23T10:17:01;9.60;57.30
81630;DHT22;71039;49.500;10.418;2024-02-23T10:19:27;9.70;57.30
81630;DHT22;71039;49.500;10.418;2024-02-23T10:21:52;9.70;57.20
81630;DHT22;71039;49.500;10.418;2024-02-23T10:24:18;9.70;57.10
81630;DHT22;71039;49.500;10.418;2024-02-23T10:26:44;9.80;57.00
81630;DHT22;71039;49.500;10.418;2024-02-23T10:29:10;9.80;56.90
81630;DHT22;71039;49.500;10.418;2024-02-23T10:31:36;9.80;56.80
81630;DHT22;71039;49.500;10.418;2024-02-23T10:34:07;9.90;56.80
81630;DHT22;71039;49.500;10.418;2024-02-23T10:36:33;9.90;56.80
81630;DHT22;71039;49.500;10.418;2024-02-23T10:39:02;9.90;56.80
81630;DHT22;71039;49.500;10.418;2024-02-23T10:41:32;10.00;56.70
81630;DHT22;71039;49.500;10.418;2024-02-23T10:44:00;10.00;56.60
81630;DHT22;71039;49.500;10.418;2024-02-23T10:46:26;10.00;56.60
81630;DHT22;71039;49.500;10.418;2024-02-23T10:48:54;10.00;56.50
81630;DHT22;71039;49.500;10.418;2024-02-23T10:51:19;10.10;56.50
81630;DHT22;71039;49.500;10.418;2024-02-23T10:53:46;10.10;56.50
81630;DHT22;71039;49.500;10.418;2024-02-23T10:56:13;10.20;56.40
81630;DHT22;71039;49.500;10.418;2024-02-23T10:58:39;10.20;55.80
81630;DHT22;71039;49.500;10.418;2024-02-23T11:01:07;10.20;56.30
81630;DHT22;71039;49.500;10.418;2024-02-23T11:03:36;10.30;56.10
81630;DHT22;71039;49.500;10.418;2024-02-23T11:06:05;10.30;56.10
81630;DHT22;71039;49.500;10.418;2024-02-23T11:08:33;10.30;55.80
81630;DHT22;71039;49.500;10.418;2024-02-23T11:11:06;10.40;55.70
81630;DHT22;71039;49.500;10.418;2024-02-23T11:13:36;10.30;55.70
81630;DHT22;71039;49.500;10.418;2024-02-23T11:16:03;10.40;55.60
81630;DHT22;71039;49.500;10.418;2024-02-23T11:18:29;10.40;55.60
81630;DHT22;71039;49.500;10.418;2024-02-23T11:20:58;10.30;55.70
81630;DHT22;71039;49.500;10.418;2024-02-23T11:23:24;10.30;55.70
81630;DHT22;71039;49.500;10.418;2024-02-23T11:26:22;10.30;55.80
81630;DHT22;71039;49.500;10.418;2024-02-23T11:28:48;10.40;55.50
81630;DHT22;71039;49.500;10.418;2024-02-23T11:31:16;10.30;55.60
81630;DHT22;71039;49.500;10.418;2024-02-23T11:33:57;10.30;55.70
81630;DHT22;71039;49.500;10.418;2024-02-23T11:36:23;10.30;55.50
81630;DHT22;71039;49.500;10.418;2024-02-23T11:38:53;10.30;55.80
81630;DHT22;71039;49.500;10.418;2024-02-23T11:41:20;10.30;55.80
81630;DHT22;71039;49.500;10.418;2024-02-23T11:43:47;10.30;55.80
81630;DHT22;71039;49.500;10.418;2024-02-23T11:46:14;10.30;55.90
81630;DHT22;71039;49.500;10.418;2024-02-23T11:48:39;10.30;55.90
81630;DHT22;71039;49.500;10.418;2024-02-23T11:51:05;10.30;55.80
81630;DHT22;71039;49.500;10.418;2024-02-23T11:53:32;10.40;55.70
81630;DHT22;71039;49.500;10.418;2024-02-23T11:55:57;10.30;55.60
81630;DHT22;71039;49.500;10.418;2024-02-23T11:58:23;10.30;55.60
81630;DHT22;71039;49.500;10.418;2024-02-23T12:00:48;10.30;55.80
81630;DHT22;71039;49.500;10.418;2024-02-23T12:03:15;10.30;55.80
81630;DHT22;71039;49.500;10.418;2024-02-23T12:05:41;10.30;55.80
81630;DHT22;71039;49.500;10.418;2024-02-23T12:08:07;10.40;55.70
81630;DHT22;71039;49.500;10.418;2024-02-23T12:10:32;10.40;55.60
81630;DHT22;71039;49.500;10.418;2024-02-23T12:12:59;10.30;55.50
81630;DHT22;71039;49.500;10.418;2024-02-23T12:15:25;10.30;55.40
81630;DHT22;71039;49.500;10.418;2024-02-23T12:17:50;10.30;55.50
81630;DHT22;71039;49.500;10.418;2024-02-23T12:20:16;10.30;55.50
81630;DHT22;71039;49.500;10.418;2024-02-23T12:22:42;10.30;55.50
81630;DHT22;71039;49.500;10.418;2024-02-23T12:25:07;10.30;55.50
81630;DHT22;71039;49.500;10.418;2024-02-23T12:27:33;10.30;55.40
81630;DHT22;71039;49.500;10.418;2024-02-23T12:29:59;10.30;55.30
81630;DHT22;71039;49.500;10.418;2024-02-23T12:32:24;10.30;55.20
81630;DHT22;71039;49.500;10.418;2024-02-23T12:34:50;10.20;55.20
81630;DHT22;71039;49.500;10.418;2024-02-23T12:37:16;10.20;55.20
81630;DHT22;71039;49.500;10.418;2024-02-23T12:39:41;10.20;55.20
81630;DHT22;71039;49.500;10.418;2024-02-23T12:42:07;10.20;55.20
81630;DHT22;71039;49.500;10.418;2024-02-23T12:44:32;10.20;55.20
81630;DHT22;71039;49.500;10.418;2024-02-23T12:46:58;10.20;55.20
81630;DHT22;71039;49.500;10.418;2024-02-23T12:49:23;10.10;55.20
81630;DHT22;71039;49.500;10.418;2024-02-23T12:51:49;10.20;55.10
81630;DHT22;71039;49.500;10.418;2024-02-23T12:54:15;10.20;55.20
81630;DHT22;71039;49.500;10.418;2024-02-23T12:56:40;10.20;55.30
81630;DHT22;71039;49.500;10.418;2024-02-23T12:59:06;10.20;55.30
81630;DHT22;71039;49.500;10.418;2024-02-23T13:01:31;10.20;55.20
81630;DHT22;71039;49.500;10.418;2024-02-23T13:03:57;10.20;55.20
81630;DHT22;71039;49.500;10.418;2024-02-23T13:06:22;10.20;55.20
81630;DHT22;71039;49.500;10.418;2024-02-23T13:08:48;10.20;55.30
81630;DHT22;71039;49.500;10.418;2024-02-23T13:11:14;10.20;55.20
81630;DHT22;71039;49.500;10.418;2024-02-23T13:13:39;10.20;55.30
81630;DHT22;71039;49.500;10.418;2024-02-23T13:16:05;10.20;55.20
81630;DHT22;71039;49.500;10.418;2024-02-23T13:18:30;10.20;55.30
81630;DHT22;71039;49.500;10.418;2024-02-23T13:20:56;10.30;55.40
81630;DHT22;71039;49.500;10.418;2024-02-23T13:23:21;10.30;55.30
81630;DHT22;71039;49.500;10.418;2024-02-23T13:25:47;10.30;55.40
81630;DHT22;71039;49.500;10.418;2024-02-23T13:28:12;10.40;55.40
81630;DHT22;71039;49.500;10.418;2024-02-23T13:30:38;10.40;55.40
81630;DHT22;71039;49.500;10.418;2024-02-23T13:33:04;10.40;55.30
81630;DHT22;71039;49.500;10.418;2024-02-23T13:35:30;10.40;55.10
81630;DHT22;71039;49.500;10.418;2024-02-23T13:37:55;10.50;55.00
81630;DHT22;71039;49.500;10.418;2024-02-23T13:40:21;10.50;54.80
81630;DHT22;71039;49.500;10.418;2024-02-23T13:42:47;10.50;54.80
81630;DHT22;71039;49.500;10.418;2024-02-23T13:45:12;10.50;54.70
81630;DHT22;71039;49.500;10.418;2024-02-23T13:47:38;10.50;54.70
81630;DHT22;71039;49.500;10.418;2024-02-23T13:50:05;10.50;54.80
81630;DHT22;71039;49.500;10.418;2024-02-23T13:52:30;10.50;54.70
81630;DHT22;71039;49.500;10.418;2024-02-23T13:54:56;10.60;54.60
81630;DHT22;71039;49.500;10.418;2024-02-23T13:57:21;10.60;54.60
81630;DHT22;71039;49.500;10.418;2024-02-23T13:59:47;10.60;54.50
81630;DHT22;71039;49.500;10.418;2024-02-23T14:02:13;10.60;54.50
81630;DHT22;71039;49.500;10.418;2024-02-23T14:04:38;10.60;54.50
81630;DHT22;71039;49.500;10.418;2024-02-23T14:07:04;10.60;54.50
81630;DHT22;71039;49.500;10.418;2024-02-23T14:09:30;10.60;54.40
81630;DHT22;71039;49.500;10.418;2024-02-23T14:11:55;10.60;54.40
81630;DHT22;71039;49.500;10.418;2024-02-23T14:14:21;10.60;54.30
81630;DHT22;71039;49.500;10.418;2024-02-23T14:16:46;10.60;54.30
81630;DHT22;71039;49.500;10.418;2024-02-23T14:19:12;10.60;54.20
81630;DHT22;71039;49.500;10.418;2024-02-23T14:21:38;10.60;54.30
81630;DHT22;71039;49.500;10.418;2024-02-23T14:24:03;10.60;54.30
81630;DHT22;71039;49.500;10.418;2024-02-23T14:26:29;10.60;54.10
81630;DHT22;71039;49.500;10.418;2024-02-23T14:28:54;10.60;54.10
81630;DHT22;71039;49.500;10.418;2024-02-23T14:31:20;10.70;54.10
81630;DHT22;71039;49.500;10.418;2024-02-23T14:33:46;10.70;54.20
81630;DHT22;71039;49.500;10.418;2024-02-23T14:36:11;10.70;54.20
81630;DHT22;71039;49.500;10.418;2024-02-23T14:38:37;10.70;54.10
81630;DHT22;71039;49.500;10.418;2024-02-23T14:41:02;10.80;54.10
81630;DHT22;71039;49.500;10.418;2024-02-23T14:43:29;10.80;54.00
81630;DHT22;71039;49.500;10.418;2024-02-23T14:45:54;10.80;53.90
81630;DHT22;71039;49.500;10.418;2024-02-23T14:48:20;10.80;53.80
81630;DHT22;71039;49.500;10.418;2024-02-23T14:50:45;10.80;53.70
81630;DHT22;71039;49.500;10.418;2024-02-23T14:53:11;10.80;53.60
81630;DHT22;71039;49.500;10.418;2024-02-23T14:55:36;10.80;53.50
81630;DHT22;71039;49.500;10.418;2024-02-23T14:58:02;10.80;53.40
81630;DHT22;71039;49.500;10.418;2024-02-23T15:00:27;10.80;53.40
81630;DHT22;71039;49.500;10.418;2024-02-23T15:02:53;10.80;53.40
81630;DHT22;71039;49.500;10.418;2024-02-23T15:05:18;10.70;53.40
81630;DHT22;71039;49.500;10.418;2024-02-23T15:07:44;10.70;53.40
81630;DHT22;71039;49.500;10.418;2024-02-23T15:13:39;10.60;53.00
81630;DHT22;71039;49.500;10.418;2024-02-23T15:16:05;10.60;53.30
81630;DHT22;71039;49.500;10.418;2024-02-23T15:18:31;10.60;53.30
81630;DHT22;71039;49.500;10.418;2024-02-23T15:20:57;10.60;53.40
81630;DHT22;71039;49.500;10.418;2024-02-23T15:23:22;10.50;53.30
81630;DHT22;71039;49.500;10.418;2024-02-23T15:25:48;10.50;53.30
81630;DHT22;71039;49.500;10.418;2024-02-23T15:28:13;10.50;53.30
81630;DHT22;71039;49.500;10.418;2024-02-23T15:30:39;10.50;53.20